createdAt,value
2019-03-25T00:01:33.888Z,48.83
2019-03-25T00:03:59.923Z,50.03
2019-03-25T00:06:25.785Z,51.43
2019-03-25T00:09:04.510Z,53.47
2019-03-25T00:11:19.569Z,51.60
2019-03-25T00:13:45.483Z,54.07
2019-03-25T00:16:11.519Z,51.57
2019-03-25T00:18:37.512Z,53.57
2019-03-25T00:21:03.559Z,54.83
2019-03-25T00:23:29.893Z,53.10
2019-03-25T00:25:56.020Z,53.53
2019-03-25T00:28:21.951Z,52.67
2019-03-25T00:30:47.897Z,51.70
2019-03-25T00:33:13.892Z,50.00
2019-03-25T00:35:39.784Z,51.80
2019-03-25T00:38:05.653Z,49.20
2019-03-25T00:40:31.573Z,56.97
2019-03-25T00:42:57.387Z,49.60
2019-03-25T00:45:23.216Z,50.23
2019-03-25T00:47:49.097Z,53.20
2019-03-25T00:50:15.033Z,49.73
2019-03-25T00:52:40.896Z,48.13
2019-03-25T00:55:06.769Z,56.47
2019-03-25T00:57:32.596Z,52.53
2019-03-25T00:59:58.544Z,55.63
2019-03-25T01:02:28.385Z,47.37
2019-03-25T01:04:54.249Z,49.47
2019-03-25T01:07:20.168Z,47.80
2019-03-25T01:09:46.063Z,51.10
2019-03-25T01:12:11.928Z,51.47
2019-03-25T01:14:37.753Z,49.90
2019-03-25T01:17:03.896Z,49.30
2019-03-25T01:19:29.842Z,47.20
2019-03-25T01:21:55.801Z,50.23
2019-03-25T01:24:21.744Z,52.00
2019-03-25T01:26:47.760Z,51.63
2019-03-25T01:29:13.750Z,49.63
2019-03-25T01:31:39.586Z,49.60
2019-03-25T01:34:05.490Z,47.93
2019-03-25T01:36:31.358Z,49.47
2019-03-25T01:38:57.185Z,48.30
2019-03-25T01:41:23.081Z,48.93
2019-03-25T01:43:48.932Z,49.20
2019-03-25T01:46:14.847Z,46.80
2019-03-25T01:48:40.858Z,49.50
2019-03-25T01:51:06.666Z,48.73
2019-03-25T01:53:32.506Z,48.53
2019-03-25T01:55:58.447Z,49.77
2019-03-25T01:58:24.384Z,48.87
2019-03-25T02:00:50.230Z,48.00
2019-03-25T02:03:16.114Z,48.27
2019-03-25T02:05:41.935Z,51.33
2019-03-25T02:08:07.897Z,48.77
2019-03-25T02:10:33.852Z,45.17
2019-03-25T02:12:59.780Z,49.13
2019-03-25T02:15:25.605Z,46.97
2019-03-25T02:17:51.472Z,45.00
2019-03-25T02:20:25.819Z,49.53
2019-03-25T02:22:45.513Z,52.03
2019-03-25T02:25:11.327Z,48.57
2019-03-25T02:27:37.307Z,48.77
2019-03-25T02:30:05.438Z,47.13
2019-03-25T02:32:31.322Z,48.57
2019-03-25T02:34:57.195Z,48.47
2019-03-25T02:37:23.095Z,44.83
2019-03-25T02:39:48.998Z,44.27
2019-03-25T02:42:14.820Z,47.40
2019-03-25T02:44:40.766Z,46.00
2019-03-25T02:47:06.756Z,47.43
2019-03-25T02:49:32.699Z,46.13
2019-03-25T02:51:58.596Z,44.40
2019-03-25T02:54:24.437Z,48.77
2019-03-25T02:56:50.293Z,44.73
2019-03-25T02:59:16.379Z,45.60
2019-03-25T03:01:42.214Z,49.63
2019-03-25T03:04:08.049Z,46.20
2019-03-25T03:06:33.914Z,45.57
2019-03-25T03:08:59.739Z,49.07
2019-03-25T03:11:25.598Z,44.50
2019-03-25T03:13:51.573Z,43.60
2019-03-25T03:16:17.390Z,46.40
2019-03-25T03:18:43.239Z,46.27
2019-03-25T03:21:09.235Z,46.77
2019-03-25T03:23:35.068Z,51.33
2019-03-25T03:26:00.900Z,48.37
2019-03-25T03:28:26.852Z,46.13
2019-03-25T03:30:52.777Z,43.93
2019-03-25T03:33:18.712Z,45.27
2019-03-25T03:35:46.549Z,44.23
2019-03-25T03:38:12.235Z,42.67
2019-03-25T03:40:38.136Z,46.37
2019-03-25T03:43:04.196Z,46.63
2019-03-25T03:45:30.052Z,48.03
2019-03-25T03:47:56.129Z,42.97
2019-03-25T03:50:23.860Z,48.43
2019-03-25T03:52:49.810Z,40.93
2019-03-25T03:55:15.778Z,46.57
2019-03-25T03:57:41.623Z,46.93
2019-03-25T04:00:11.266Z,46.83
2019-03-25T04:02:37.191Z,46.70
2019-03-25T04:05:03.437Z,43.60
2019-03-25T04:07:29.256Z,45.70
2019-03-25T04:09:55.149Z,48.70
2019-03-25T04:12:21.194Z,45.37
2019-03-25T04:14:47.129Z,47.40
2019-03-25T04:17:13.130Z,44.33
2019-03-25T04:19:38.972Z,46.80
2019-03-25T04:22:04.910Z,49.27
2019-03-25T04:24:30.895Z,45.23
2019-03-25T04:26:56.719Z,48.17
2019-03-25T04:29:22.653Z,44.20
2019-03-25T04:31:48.856Z,41.80
2019-03-25T04:34:14.679Z,44.53
2019-03-25T04:36:40.649Z,45.83
2019-03-25T04:39:07.067Z,49.40
2019-03-25T04:41:32.982Z,46.07
2019-03-25T04:43:58.809Z,47.70
2019-03-25T04:46:24.827Z,42.60
2019-03-25T04:48:50.727Z,46.53
2019-03-25T04:51:16.666Z,44.17
2019-03-25T04:53:42.499Z,45.70
2019-03-25T04:56:08.489Z,47.87
2019-03-25T04:58:34.333Z,45.40
2019-03-25T05:01:00.160Z,48.07
2019-03-25T05:03:26.024Z,46.07
2019-03-25T05:05:51.955Z,43.27
2019-03-25T05:08:17.803Z,47.03
2019-03-25T05:10:43.748Z,41.77
2019-03-25T05:13:09.698Z,46.83
2019-03-25T05:15:35.539Z,44.17
2019-03-25T05:18:01.476Z,47.03
2019-03-25T05:20:27.571Z,45.80
2019-03-25T05:22:53.371Z,45.93
2019-03-25T05:25:19.334Z,47.00
2019-03-25T05:27:45.423Z,43.00
2019-03-25T05:30:11.552Z,43.03
2019-03-25T05:32:37.384Z,48.37
2019-03-25T05:35:05.373Z,47.13
2019-03-25T05:37:31.197Z,45.77
2019-03-25T05:39:57.185Z,44.40
2019-03-25T05:42:23.044Z,43.43
2019-03-25T05:44:49.001Z,44.50
2019-03-25T05:47:14.918Z,43.73
2019-03-25T05:49:40.850Z,47.43
2019-03-25T05:52:06.673Z,47.83
2019-03-25T05:54:32.568Z,44.73
2019-03-25T05:57:02.655Z,51.20
2019-03-25T05:59:26.197Z,48.53
2019-03-25T06:01:52.052Z,46.50
2019-03-25T06:04:17.961Z,47.07
2019-03-25T06:06:43.794Z,48.80
2019-03-25T06:09:09.746Z,46.10
2019-03-25T06:11:35.755Z,43.70
2019-03-25T06:14:01.700Z,50.80
2019-03-25T06:16:27.646Z,46.10
2019-03-25T06:18:53.719Z,46.53
2019-03-25T06:21:19.548Z,43.00
2019-03-25T06:23:45.395Z,50.23
2019-03-25T06:26:11.296Z,45.27
2019-03-25T06:28:37.117Z,44.70
2019-03-25T06:31:03.175Z,45.97
2019-03-25T06:33:29.055Z,46.20
2019-03-25T06:35:54.884Z,41.27
2019-03-25T06:38:20.715Z,44.57
2019-03-25T06:40:49.126Z,41.67
2019-03-25T06:43:14.445Z,46.10
2019-03-25T06:45:40.282Z,47.30
2019-03-25T06:48:06.165Z,43.73
2019-03-25T06:50:32.006Z,55.73
2019-03-25T06:52:57.872Z,50.37
2019-03-25T06:55:23.805Z,48.57
2019-03-25T06:57:49.846Z,51.73
2019-03-25T07:00:16.477Z,43.73
2019-03-25T07:02:42.407Z,48.77
2019-03-25T07:05:09.639Z,44.27
2019-03-25T07:07:35.636Z,46.00
2019-03-25T07:10:01.643Z,43.20
2019-03-25T07:12:27.774Z,46.63
2019-03-25T07:14:53.652Z,47.17
2019-03-25T07:17:19.711Z,47.70
2019-03-25T07:19:45.578Z,52.13
2019-03-25T07:22:11.390Z,49.43
2019-03-25T07:24:37.275Z,49.97
2019-03-25T07:27:03.352Z,47.00
2019-03-25T07:29:29.196Z,47.13
2019-03-25T07:31:55.060Z,46.20
2019-03-25T07:34:21.039Z,43.20
2019-03-25T07:36:46.897Z,46.70
2019-03-25T07:39:12.828Z,53.70
2019-03-25T07:41:38.756Z,49.57
2019-03-25T07:44:04.952Z,50.93
2019-03-25T07:46:30.867Z,60.07
2019-03-25T07:48:56.720Z,49.97
2019-03-25T07:51:22.723Z,56.03
2019-03-25T07:53:50.961Z,54.47
2019-03-25T07:56:16.393Z,58.43
2019-03-25T07:58:42.353Z,55.20
2019-03-25T08:01:08.330Z,51.53
2019-03-25T08:03:34.164Z,58.50
2019-03-25T08:06:00.225Z,56.97
2019-03-25T08:08:26.138Z,60.03
2019-03-25T08:10:52.075Z,54.73
2019-03-25T08:13:18.014Z,58.90
2019-03-25T08:15:44.066Z,55.33
2019-03-25T08:18:09.930Z,55.87
2019-03-25T08:20:35.887Z,54.90
2019-03-25T08:23:01.813Z,57.63
2019-03-25T08:25:27.690Z,46.77
2019-03-25T08:27:59.859Z,48.70
2019-03-25T08:30:21.445Z,55.23
2019-03-25T08:32:47.390Z,47.47
2019-03-25T08:35:13.408Z,47.63
2019-03-25T08:37:39.238Z,48.07
2019-03-25T08:40:05.842Z,47.43
2019-03-25T08:42:31.647Z,44.63
2019-03-25T08:44:57.596Z,46.90
2019-03-25T08:47:23.516Z,47.40
2019-03-25T08:49:49.386Z,44.90
2019-03-25T08:52:15.264Z,38.97
2019-03-25T08:54:41.083Z,37.80
2019-03-25T08:57:06.958Z,45.57
2019-03-25T08:59:32.805Z,39.03
2019-03-25T09:01:58.717Z,39.57
2019-03-25T09:04:24.641Z,41.07
2019-03-25T09:06:50.468Z,42.60
2019-03-25T09:09:16.390Z,41.10
2019-03-25T09:11:42.384Z,40.07
2019-03-25T09:14:08.338Z,41.03
2019-03-25T09:16:34.161Z,36.70
2019-03-25T09:18:59.994Z,34.83
2019-03-25T09:21:25.821Z,35.17
2019-03-25T09:23:51.916Z,37.30
2019-03-25T09:26:17.767Z,38.97
2019-03-25T09:28:43.599Z,41.37
2019-03-25T09:31:11.742Z,39.70
2019-03-25T09:33:37.955Z,33.97
2019-03-25T09:36:04.177Z,38.47
2019-03-25T09:38:30.078Z,33.23
2019-03-25T09:40:55.910Z,33.10
2019-03-25T09:43:21.762Z,41.03
2019-03-25T09:45:47.852Z,35.60
2019-03-25T09:48:13.786Z,32.97
2019-03-25T09:50:43.248Z,35.43
2019-03-25T09:53:09.488Z,35.67
2019-03-25T09:55:35.370Z,33.97
2019-03-25T09:58:01.326Z,32.50
2019-03-25T10:00:31.314Z,31.10
2019-03-25T10:02:57.553Z,35.73
2019-03-25T10:05:23.396Z,33.80
2019-03-25T10:07:49.239Z,32.93
2019-03-25T10:10:15.305Z,33.17
2019-03-25T10:12:41.226Z,37.73
2019-03-25T10:15:08.368Z,37.73
2019-03-25T10:17:34.225Z,37.17
2019-03-25T10:20:00.432Z,35.70
2019-03-25T10:22:26.286Z,35.80
2019-03-25T10:24:52.173Z,35.73
2019-03-25T10:27:18.117Z,27.37
2019-03-25T10:29:44.070Z,33.63
2019-03-25T10:32:10.232Z,25.93
2019-03-25T10:34:36.271Z,30.63
2019-03-25T10:37:02.228Z,30.77
2019-03-25T10:39:28.036Z,29.77
2019-03-25T10:41:53.881Z,32.03
2019-03-25T10:44:19.863Z,32.07
2019-03-25T10:46:45.798Z,31.93
2019-03-25T10:49:11.676Z,35.13
2019-03-25T10:51:37.603Z,31.20
2019-03-25T10:54:03.543Z,35.53
2019-03-25T10:56:29.386Z,32.07
2019-03-25T10:58:58.284Z,28.93
2019-03-25T11:01:23.199Z,34.87
2019-03-25T11:03:49.117Z,33.67
2019-03-25T11:06:14.964Z,41.90
2019-03-25T11:08:41.001Z,33.47
2019-03-25T11:11:06.912Z,33.07
2019-03-25T11:13:32.957Z,36.70
2019-03-25T11:15:58.871Z,36.27
2019-03-25T11:18:24.879Z,33.77
2019-03-25T11:20:50.776Z,36.07
2019-03-25T11:23:16.601Z,34.40
2019-03-25T11:25:42.489Z,36.40
2019-03-25T11:28:08.429Z,42.17
2019-03-25T11:30:49.693Z,36.00
2019-03-25T11:33:15.530Z,38.80
2019-03-25T11:35:41.366Z,40.37
2019-03-25T11:38:07.319Z,36.70
2019-03-25T11:40:33.233Z,37.93
2019-03-25T11:42:59.404Z,38.67
2019-03-25T11:45:25.430Z,36.83
2019-03-25T11:47:51.300Z,40.63
2019-03-25T11:50:17.385Z,36.17
2019-03-25T11:52:43.396Z,37.43
2019-03-25T11:55:09.499Z,40.73
2019-03-25T11:57:35.535Z,37.70
2019-03-25T12:00:01.695Z,42.13
2019-03-25T12:02:27.624Z,43.47
2019-03-25T12:04:53.579Z,47.10
2019-03-25T12:07:19.502Z,44.83
2019-03-25T12:09:45.570Z,42.20
2019-03-25T12:12:11.479Z,45.33
2019-03-25T12:14:37.374Z,48.03
2019-03-25T12:17:03.403Z,40.83
2019-03-25T12:19:29.268Z,40.93
2019-03-25T12:21:55.270Z,44.50
2019-03-25T12:24:21.200Z,41.00
2019-03-25T12:26:47.097Z,43.27
2019-03-25T12:29:12.913Z,40.97
2019-03-25T12:31:38.996Z,38.90
2019-03-25T12:34:05.066Z,41.87
2019-03-25T12:36:31.116Z,40.73
2019-03-25T12:38:56.953Z,41.10
2019-03-25T12:41:22.940Z,37.27
2019-03-25T12:43:48.875Z,37.60
2019-03-25T12:46:14.730Z,36.13
2019-03-25T12:48:40.707Z,33.80
2019-03-25T12:51:06.758Z,37.20
2019-03-25T12:53:32.700Z,33.50
2019-03-25T12:55:58.754Z,33.37
2019-03-25T12:58:24.593Z,29.63
2019-03-25T13:00:50.561Z,33.80
2019-03-25T13:03:16.530Z,31.60
2019-03-25T13:05:42.546Z,32.13
2019-03-25T13:08:08.478Z,33.60
2019-03-25T13:10:34.548Z,28.80
2019-03-25T13:13:00.461Z,31.43
2019-03-25T13:15:26.397Z,27.13
2019-03-25T13:17:52.273Z,29.45
2019-03-25T13:20:18.212Z,27.52
2019-03-25T13:22:44.063Z,29.65
2019-03-25T13:25:09.982Z,27.55
2019-03-25T13:27:35.947Z,26.50
2019-03-25T13:30:04.270Z,26.20
2019-03-25T13:32:30.162Z,22.37
2019-03-25T13:34:56.016Z,26.52
2019-03-25T13:37:21.844Z,25.72
2019-03-25T13:39:47.859Z,29.85
2019-03-25T13:42:13.703Z,30.37
2019-03-25T13:44:40.249Z,26.48
2019-03-25T13:47:06.128Z,26.62
2019-03-25T13:49:31.950Z,21.60
2019-03-25T13:51:57.784Z,28.38
2019-03-25T13:54:23.792Z,24.37
2019-03-25T13:56:49.750Z,23.50
2019-03-25T13:59:15.615Z,26.07
2019-03-25T14:01:41.555Z,26.00
2019-03-25T14:04:07.500Z,25.23
2019-03-25T14:06:33.461Z,25.02
2019-03-25T14:08:59.305Z,28.95
2019-03-25T14:11:25.419Z,26.52
2019-03-25T14:13:51.281Z,28.85
2019-03-25T14:16:17.171Z,26.95
2019-03-25T14:18:43.046Z,25.92
2019-03-25T14:21:09.114Z,27.80
2019-03-25T14:23:34.946Z,29.32
2019-03-25T14:26:01.198Z,26.23
2019-03-25T14:28:27.158Z,29.02
2019-03-25T14:30:53.057Z,28.77
2019-03-25T14:33:18.915Z,31.20
2019-03-25T14:35:44.823Z,24.77
2019-03-25T14:38:10.786Z,27.00
2019-03-25T14:40:36.855Z,26.55
2019-03-25T14:43:03.270Z,24.57
2019-03-25T14:45:29.256Z,27.73
2019-03-25T14:47:55.337Z,25.32
2019-03-25T14:50:21.324Z,24.77
2019-03-25T14:52:47.291Z,26.15
2019-03-25T14:55:17.223Z,22.80
2019-03-25T14:57:43.112Z,20.20
2019-03-25T15:00:10.374Z,19.92
2019-03-25T15:02:36.283Z,23.22
2019-03-25T15:05:04.484Z,22.20
2019-03-25T15:07:30.449Z,21.87
2019-03-25T15:09:56.433Z,22.42
2019-03-25T15:12:22.331Z,18.57
2019-03-25T15:14:48.263Z,20.72
2019-03-25T15:17:14.263Z,19.02
2019-03-25T15:19:40.137Z,21.55
2019-03-25T15:22:06.070Z,21.57
2019-03-25T15:24:32.105Z,15.68
2019-03-25T15:26:58.037Z,18.73
2019-03-25T15:29:23.857Z,17.37
2019-03-25T15:31:49.749Z,15.53
2019-03-25T15:34:15.611Z,18.37
2019-03-25T15:36:41.441Z,16.87
2019-03-25T15:39:07.685Z,19.30
2019-03-25T15:41:33.524Z,15.90
2019-03-25T15:43:59.477Z,17.00
2019-03-25T15:46:25.378Z,15.90
2019-03-25T15:48:51.312Z,23.15
2019-03-25T15:51:17.143Z,16.05
2019-03-25T15:53:43.037Z,13.77
2019-03-25T15:56:12.410Z,13.57
2019-03-25T15:58:38.290Z,6.73
2019-03-25T16:01:04.238Z,13.53
2019-03-25T16:03:30.123Z,35.17
2019-03-25T16:05:56.247Z,21.83
2019-03-25T16:08:22.075Z,14.87
2019-03-25T16:10:48.011Z,14.77
2019-03-25T16:13:13.894Z,9.80
2019-03-25T16:15:41.745Z,14.17
2019-03-25T16:18:08.159Z,9.17
2019-03-25T16:20:34.221Z,25.40
2019-03-25T16:23:00.174Z,9.27
2019-03-25T16:25:26.500Z,8.00
2019-03-25T16:27:52.323Z,8.00
2019-03-25T16:30:18.273Z,6.90
2019-03-25T16:32:44.122Z,13.43
2019-03-25T16:35:11.565Z,15.40
2019-03-25T16:37:37.545Z,9.13
2019-03-25T16:40:05.574Z,13.87
2019-03-25T16:42:31.563Z,8.37
2019-03-25T16:44:57.612Z,7.87
2019-03-25T16:47:23.580Z,14.50
2019-03-25T16:49:49.381Z,10.57
2019-03-25T16:52:15.555Z,6.90
2019-03-25T16:54:41.381Z,7.13
2019-03-25T16:57:07.511Z,12.20
2019-03-25T16:59:33.482Z,5.90
2019-03-25T17:01:59.323Z,5.23
2019-03-25T17:04:25.302Z,6.33
2019-03-25T17:06:51.342Z,9.93
2019-03-25T17:09:17.167Z,8.87
2019-03-25T17:11:42.998Z,11.27
2019-03-25T17:14:09.028Z,7.20
2019-03-25T17:16:35.103Z,9.83
2019-03-25T17:19:02.125Z,6.97
2019-03-25T17:21:28.121Z,10.83
2019-03-25T17:23:53.985Z,8.70
2019-03-25T17:26:19.967Z,9.57
2019-03-25T17:28:46.918Z,11.10
2019-03-25T17:31:21.033Z,8.40
2019-03-25T17:33:40.698Z,9.27
2019-03-25T17:36:06.559Z,11.20
2019-03-25T17:38:32.553Z,12.70
2019-03-25T17:40:58.395Z,10.77
2019-03-25T17:43:24.224Z,10.20
2019-03-25T17:45:50.178Z,10.93
2019-03-25T17:48:16.021Z,9.43
2019-03-25T17:50:41.966Z,8.23
2019-03-25T17:53:07.905Z,8.13
2019-03-25T17:55:33.932Z,5.23
2019-03-25T17:57:59.958Z,14.20
2019-03-25T18:00:48.114Z,11.03
2019-03-25T18:03:15.347Z,16.57
2019-03-25T18:05:41.238Z,13.27
2019-03-25T18:08:07.095Z,8.33
2019-03-25T18:10:33.059Z,8.27
2019-03-25T18:12:59.014Z,8.37
2019-03-25T18:15:25.007Z,8.23
2019-03-25T18:17:50.940Z,15.43
2019-03-25T18:20:36.755Z,4.57
2019-03-25T18:23:02.730Z,8.67
2019-03-25T18:25:28.657Z,13.90
2019-03-25T18:27:54.544Z,7.93
2019-03-25T18:30:29.903Z,8.10
2019-03-25T18:32:55.868Z,8.13
2019-03-25T18:35:22.319Z,10.73
2019-03-25T18:37:48.167Z,8.73
2019-03-25T18:40:14.025Z,8.53
2019-03-25T18:42:40.121Z,8.03
2019-03-25T18:45:06.414Z,11.07
2019-03-25T18:47:32.480Z,6.27
2019-03-25T18:49:58.583Z,8.60
2019-03-25T18:52:24.464Z,21.13
2019-03-25T18:54:50.545Z,6.57
2019-03-25T18:57:16.516Z,3.93
2019-03-25T18:59:42.566Z,8.60
2019-03-25T19:02:08.622Z,10.87
2019-03-25T19:04:34.538Z,11.00
2019-03-25T19:07:01.263Z,8.30
2019-03-25T19:09:27.685Z,8.23
2019-03-25T19:11:53.524Z,6.03
2019-03-25T19:14:19.351Z,9.33
2019-03-25T19:16:45.379Z,12.83
2019-03-25T19:19:11.185Z,9.63
2019-03-25T19:21:37.361Z,8.13
2019-03-25T19:24:03.429Z,5.60
2019-03-25T19:26:29.281Z,4.13
2019-03-25T19:28:55.109Z,13.13
2019-03-25T19:31:21.081Z,7.13
2019-03-25T19:33:46.897Z,11.30
2019-03-25T19:36:12.913Z,18.77
2019-03-25T19:38:38.743Z,5.20
2019-03-25T19:41:04.584Z,4.17
2019-03-25T19:43:30.453Z,6.30
2019-03-25T19:45:56.276Z,6.20
2019-03-25T19:48:22.211Z,4.43
2019-03-25T19:50:48.265Z,9.40
2019-03-25T19:53:18.927Z,6.70
2019-03-25T19:55:42.199Z,1.80
2019-03-25T19:58:08.157Z,7.63
2019-03-25T20:00:37.949Z,3.80
2019-03-25T20:03:04.713Z,8.37
2019-03-25T20:05:30.706Z,2.87
2019-03-25T20:07:57.704Z,7.93
2019-03-25T20:10:34.482Z,6.53
2019-03-25T20:13:00.954Z,5.03
2019-03-25T20:15:27.256Z,3.70
2019-03-25T20:17:53.064Z,7.03
2019-03-25T20:20:18.973Z,5.33
2019-03-25T20:22:44.885Z,4.40
2019-03-25T20:25:10.931Z,7.10
2019-03-25T20:27:36.795Z,4.33
2019-03-25T20:30:06.460Z,5.80
2019-03-25T20:32:32.466Z,3.40
2019-03-25T20:34:58.373Z,2.53
2019-03-25T20:37:24.216Z,3.73
2019-03-25T20:39:50.085Z,2.40
2019-03-25T20:42:15.955Z,2.27
2019-03-25T20:44:41.777Z,2.83
2019-03-25T20:47:07.616Z,2.20
2019-03-25T20:49:33.605Z,6.93
2019-03-25T20:51:59.635Z,9.47
2019-03-25T20:54:25.610Z,3.50
2019-03-25T20:56:51.461Z,11.00
2019-03-25T20:59:18.247Z,7.03
2019-03-25T21:01:44.315Z,12.17
2019-03-25T21:04:10.238Z,5.10
2019-03-25T21:06:36.514Z,6.50
2019-03-25T21:09:04.599Z,8.73
2019-03-25T21:11:30.639Z,3.27
2019-03-25T21:13:56.922Z,9.40
2019-03-25T21:16:22.862Z,6.00
2019-03-25T21:18:48.841Z,3.60
2019-03-25T21:21:14.831Z,2.77
2019-03-25T21:23:40.706Z,3.53
2019-03-25T21:26:06.785Z,4.30
2019-03-25T21:28:32.817Z,6.50
2019-03-25T21:30:58.682Z,5.20
2019-03-25T21:33:24.537Z,4.90
2019-03-25T21:35:50.653Z,4.90
2019-03-25T21:38:16.673Z,3.07
2019-03-25T21:40:42.948Z,3.37
2019-03-25T21:43:09.104Z,3.17
2019-03-25T21:45:35.020Z,4.60
2019-03-25T21:48:00.979Z,1.83
2019-03-25T21:50:26.884Z,13.33
2019-03-25T21:52:53.097Z,3.57
2019-03-25T21:55:19.046Z,13.97
2019-03-25T21:57:45.200Z,6.80
2019-03-25T22:00:11.590Z,4.00
2019-03-25T22:02:37.426Z,3.33
2019-03-25T22:05:05.497Z,5.00
2019-03-25T22:07:31.500Z,4.50
2019-03-25T22:09:57.566Z,3.40
2019-03-25T22:12:23.578Z,3.80
2019-03-25T22:14:49.532Z,2.40
2019-03-25T22:17:15.385Z,3.57
2019-03-25T22:19:41.238Z,3.70
2019-03-25T22:22:07.213Z,4.37
2019-03-25T22:24:33.081Z,2.17
2019-03-25T22:26:58.903Z,3.10
2019-03-25T22:29:24.832Z,1.80
2019-03-25T22:31:51.053Z,4.93
2019-03-25T22:34:16.947Z,3.43
2019-03-25T22:36:42.782Z,1.60
2019-03-25T22:39:08.893Z,2.80
2019-03-25T22:41:35.145Z,2.70
2019-03-25T22:44:01.351Z,2.50
2019-03-25T22:46:27.441Z,3.97
2019-03-25T22:48:53.305Z,1.97
2019-03-25T22:51:19.147Z,1.77
2019-03-25T22:53:45.068Z,5.87
2019-03-25T22:56:11.041Z,2.03
2019-03-25T22:58:37.208Z,2.47
2019-03-25T23:01:03.715Z,4.60
2019-03-25T23:03:39.133Z,2.90
2019-03-25T23:05:57.660Z,2.13
2019-03-25T23:08:23.546Z,2.37
2019-03-25T23:10:49.729Z,2.90
2019-03-25T23:13:15.789Z,2.10
2019-03-25T23:15:41.774Z,2.37
2019-03-25T23:18:07.844Z,2.20
2019-03-25T23:20:33.683Z,2.50
2019-03-25T23:22:59.729Z,1.57
2019-03-25T23:25:25.564Z,2.07
2019-03-25T23:27:51.473Z,1.43
2019-03-25T23:30:17.593Z,2.13
2019-03-25T23:32:43.629Z,1.67
2019-03-25T23:35:09.661Z,2.40
2019-03-25T23:37:35.777Z,2.23
2019-03-25T23:40:04.234Z,5.47
2019-03-25T23:42:30.089Z,2.53
2019-03-25T23:44:56.002Z,5.53
2019-03-25T23:47:22.067Z,1.93
2019-03-25T23:49:48.010Z,2.00
2019-03-25T23:52:13.923Z,3.47
2019-03-25T23:54:39.982Z,2.40
2019-03-25T23:57:05.953Z,1.63
2019-03-25T23:59:32.013Z,5.47
